Time;durP1;ratioP1;P1;durP2;ratioP2;P2;SDS_P1;SDS_P2;PMS_P1;PMS_P2;Temp;Humidity;BMP_temperature;BMP_pressure;BME280_temperature;BME280_humidity;BME280_pressure;Samples;Min_cycle;Max_cycle;Signal;HPM_P1;HPM_P2
2023/05/04 00:01:40;;;;;;;16.53;6.70;;;6.60;99.90;;;;;;5031728;28;20177;-84
2023/05/04 00:04:06;;;;;;;15.67;6.33;;;6.70;99.90;;;;;;5015271;28;20216;-84
2023/05/04 00:06:31;;;;;;;15.10;6.20;;;6.60;99.90;;;;;;5015456;28;20231;-83
2023/05/04 00:08:57;;;;;;;17.17;7.37;;;6.60;99.90;;;;;;5015386;28;20180;-84
2023/05/04 00:11:23;;;;;;;16.53;6.83;;;6.60;99.90;;;;;;5031875;28;20196;-83
2023/05/04 00:13:48;;;;;;;24.33;7.67;;;6.60;99.90;;;;;;5032660;28;20177;-83
2023/05/04 00:16:14;;;;;;;20.57;8.30;;;6.60;99.90;;;;;;5031602;28;20627;-84
2023/05/04 00:18:40;;;;;;;21.53;6.93;;;6.50;99.90;;;;;;5031870;28;20619;-83
2023/05/04 00:21:06;;;;;;;25.53;7.83;;;6.50;99.90;;;;;;5031678;28;20176;-84
2023/05/04 00:23:31;;;;;;;22.87;7.40;;;6.50;99.90;;;;;;5033032;28;20634;-83
2023/05/04 00:25:58;;;;;;;21.90;8.33;;;6.40;99.90;;;;;;5032882;28;20526;-84
2023/05/04 00:28:23;;;;;;;20.90;9.83;;;6.50;99.90;;;;;;5031684;28;20666;-84
2023/05/04 00:30:51;;;;;;;14.53;7.73;;;6.50;99.90;;;;;;5031826;28;20181;-83
2023/05/04 00:33:17;;;;;;;22.47;7.97;;;6.40;99.90;;;;;;5031968;28;20642;-83
2023/05/04 00:35:42;;;;;;;19.60;7.53;;;6.40;99.90;;;;;;5037530;28;20177;-83
2023/05/04 00:38:08;;;;;;;19.20;7.40;;;6.40;99.90;;;;;;5020755;28;20211;-82
2023/05/04 00:40:34;;;;;;;19.37;8.30;;;6.30;99.90;;;;;;5035575;28;20176;-83
2023/05/04 00:42:59;;;;;;;17.13;7.63;;;6.30;99.90;;;;;;5036622;28;20172;-83
2023/05/04 00:45:25;;;;;;;19.43;7.87;;;6.30;99.90;;;;;;5036492;28;20596;-83
2023/05/04 00:47:52;;;;;;;12.20;7.00;;;6.20;99.90;;;;;;5037410;28;20247;-83
2023/05/04 00:50:18;;;;;;;19.87;7.73;;;6.10;99.90;;;;;;5036147;28;20228;-83
2023/05/04 00:52:45;;;;;;;18.77;7.53;;;6.10;99.90;;;;;;5019289;28;20176;-83
2023/05/04 00:55:13;;;;;;;12.17;6.30;;;6.00;99.90;;;;;;5034936;28;20183;-83
2023/05/04 00:57:40;;;;;;;14.00;6.60;;;6.00;99.90;;;;;;5036382;28;20638;-83
2023/05/04 01:00:07;;;;;;;16.73;6.80;;;5.90;99.90;;;;;;5035906;28;20245;-84
2023/05/04 01:02:33;;;;;;;19.43;7.10;;;5.90;99.90;;;;;;5036390;28;20172;-83
2023/05/04 01:05:00;;;;;;;17.37;5.67;;;5.90;99.90;;;;;;5035949;28;20172;-83
2023/05/04 01:07:43;;;;;;;14.93;6.50;;;5.80;99.90;;;;;;5018519;28;20177;-84
2023/05/04 01:10:11;;;;;;;15.43;6.10;;;5.70;99.90;;;;;;5036112;28;20169;-83
2023/05/04 01:12:46;;;;;;;14.23;6.00;;;5.70;99.90;;;;;;5034897;28;20196;-83
2023/05/04 01:15:12;;;;;;;19.67;7.13;;;5.70;99.90;;;;;;5035793;28;20219;-84
2023/05/04 01:17:38;;;;;;;11.47;5.53;;;5.70;99.90;;;;;;5036009;28;20505;-83
2023/05/04 01:20:05;;;;;;;13.80;6.27;;;5.60;99.90;;;;;;5034587;28;20176;-83
2023/05/04 01:22:30;;;;;;;14.33;6.43;;;5.60;99.90;;;;;;5034565;28;20256;-83
2023/05/04 01:24:56;;;;;;;13.80;5.83;;;5.60;99.90;;;;;;5034573;28;20295;-83
2023/05/04 01:27:28;;;;;;;14.83;6.73;;;5.50;99.90;;;;;;5034534;28;20189;-84
2023/05/04 01:30:06;;;;;;;11.47;5.87;;;5.50;99.90;;;;;;5033890;28;20267;-84
2023/05/04 01:32:33;;;;;;;16.27;6.53;;;5.50;99.90;;;;;;5035606;28;20156;-84
2023/05/04 01:34:58;;;;;;;11.37;5.83;;;5.40;99.90;;;;;;5035377;28;20187;-83
2023/05/04 01:37:24;;;;;;;15.07;4.67;;;5.30;99.90;;;;;;5034163;28;20173;-84
2023/05/04 01:39:50;;;;;;;9.57;5.50;;;5.30;99.90;;;;;;5035684;28;20179;-83
2023/05/04 01:42:16;;;;;;;17.00;5.00;;;5.20;99.90;;;;;;5035472;28;20176;-84
2023/05/04 01:44:42;;;;;;;9.80;5.00;;;5.20;99.90;;;;;;5035096;28;20612;-84
2023/05/04 01:47:07;;;;;;;17.83;5.50;;;5.10;99.90;;;;;;5033389;28;20215;-83
2023/05/04 01:49:33;;;;;;;15.23;4.90;;;5.10;99.90;;;;;;5034351;28;20239;-82
2023/05/04 01:51:59;;;;;;;11.47;5.30;;;5.10;99.90;;;;;;5035387;28;20226;-83
2023/05/04 01:54:24;;;;;;;12.47;4.90;;;5.00;99.90;;;;;;5034011;28;20264;-83
2023/05/04 01:56:50;;;;;;;12.63;5.00;;;5.00;99.90;;;;;;5033987;28;20188;-83
2023/05/04 01:59:16;;;;;;;12.83;5.73;;;5.00;99.90;;;;;;5017406;28;20181;-83
2023/05/04 02:01:41;;;;;;;21.23;5.77;;;5.00;99.90;;;;;;5034948;28;20501;-83
2023/05/04 02:04:07;;;;;;;9.07;5.13;;;4.90;99.90;;;;;;5035151;28;20232;-82
2023/05/04 02:06:33;;;;;;;10.07;5.10;;;4.90;99.90;;;;;;5033801;28;20231;-83
2023/05/04 02:08:59;;;;;;;13.03;5.53;;;4.90;99.90;;;;;;5017569;28;20180;-83
2023/05/04 02:11:24;;;;;;;8.40;5.00;;;4.80;99.90;;;;;;5033544;28;20211;-83
2023/05/04 02:13:50;;;;;;;8.57;5.20;;;4.80;99.90;;;;;;5034660;28;20177;-83
2023/05/04 02:16:16;;;;;;;14.87;4.67;;;4.70;99.90;;;;;;5034448;28;20167;-84
2023/05/04 02:18:41;;;;;;;9.70;5.20;;;4.70;99.90;;;;;;5017200;28;20674;-83
2023/05/04 02:21:07;;;;;;;12.33;4.53;;;4.70;99.90;;;;;;5033607;28;20619;-83
2023/05/04 02:23:33;;;;;;;9.27;4.70;;;4.60;99.90;;;;;;5033385;28;20187;-83
2023/05/04 02:25:58;;;;;;;12.23;5.70;;;4.60;99.90;;;;;;5034877;28;20555;-83
2023/05/04 02:28:24;;;;;;;8.60;4.63;;;4.60;99.90;;;;;;5033035;28;20176;-83
2023/05/04 02:30:49;;;;;;;10.20;5.73;;;4.60;99.90;;;;;;5034437;28;20180;-83
2023/05/04 02:33:15;;;;;;;10.27;4.90;;;4.60;99.90;;;;;;5034338;28;20264;-83
2023/05/04 02:35:41;;;;;;;8.87;4.83;;;4.60;99.90;;;;;;5032858;28;20184;-83
2023/05/04 02:38:06;;;;;;;10.77;5.03;;;4.50;99.90;;;;;;5017082;28;20761;-83
2023/05/04 02:40:32;;;;;;;8.63;4.40;;;4.50;99.90;;;;;;5033071;28;20176;-83
2023/05/04 02:42:58;;;;;;;9.20;4.53;;;4.50;99.90;;;;;;5016528;28;20526;-83
2023/05/04 02:45:23;;;;;;;8.80;4.63;;;4.40;99.90;;;;;;5032962;28;20208;-83
2023/05/04 02:47:49;;;;;;;6.40;3.67;;;4.40;99.90;;;;;;5033364;28;20529;-83
2023/05/04 02:50:15;;;;;;;10.97;4.27;;;4.40;99.90;;;;;;5033980;28;20180;-83
2023/05/04 02:52:40;;;;;;;7.67;4.33;;;4.50;99.90;;;;;;5034036;28;20185;-83
2023/05/04 02:55:06;;;;;;;8.40;4.07;;;4.50;99.90;;;;;;5034223;28;20179;-83
2023/05/04 02:57:32;;;;;;;13.00;4.43;;;4.50;99.90;;;;;;5016053;28;20176;-83
2023/05/04 02:59:57;;;;;;;8.17;4.17;;;4.40;99.90;;;;;;5032787;28;20234;-83
2023/05/04 03:02:23;;;;;;;12.53;5.13;;;4.50;99.90;;;;;;5032657;28;20180;-84
2023/05/04 03:04:49;;;;;;;10.20;4.50;;;4.50;99.90;;;;;;5016596;28;20180;-83
2023/05/04 03:07:15;;;;;;;12.47;4.03;;;4.50;99.90;;;;;;5033949;28;20208;-83
2023/05/04 03:09:41;;;;;;;8.40;4.20;;;4.50;99.90;;;;;;5033454;28;20184;-83
2023/05/04 03:12:06;;;;;;;7.70;4.13;;;4.90;99.90;;;;;;5033885;28;20177;-83
2023/05/04 03:14:32;;;;;;;7.63;3.60;;;4.50;99.90;;;;;;5032145;28;20239;-83
2023/05/04 03:16:57;;;;;;;9.77;3.90;;;4.50;99.90;;;;;;5033442;28;20185;-83
2023/05/04 03:19:23;;;;;;;5.83;4.40;;;4.50;99.90;;;;;;5032384;28;20187;-84
2023/05/04 03:21:49;;;;;;;10.40;4.57;;;4.50;99.90;;;;;;5034032;28;20259;-83
2023/05/04 03:24:16;;;;;;;11.43;4.50;;;4.50;99.90;;;;;;5032486;28;20576;-83
2023/05/04 03:26:42;;;;;;;11.87;4.73;;;4.50;99.90;;;;;;5032937;28;20545;-83
2023/05/04 03:29:09;;;;;;;5.50;3.20;;;4.50;99.90;;;;;;5015938;28;20184;-83
2023/05/04 03:31:35;;;;;;;6.20;3.83;;;4.60;99.90;;;;;;5031293;28;20196;-83
2023/05/04 03:34:02;;;;;;;6.40;4.77;;;4.60;99.90;;;;;;5027307;28;20191;-83
2023/05/04 03:36:29;;;;;;;5.93;4.47;;;4.60;99.90;;;;;;5028059;28;20212;-85
2023/05/04 03:38:55;;;;;;;6.33;4.03;;;5.00;99.90;;;;;;5031918;28;20631;-82
2023/05/04 03:41:20;;;;;;;6.00;4.07;;;4.70;99.90;;;;;;5013886;28;20653;-83
2023/05/04 03:43:46;;;;;;;7.10;3.93;;;4.70;99.90;;;;;;5013317;28;20295;-82
2023/05/04 03:46:12;;;;;;;9.20;4.60;;;4.80;99.90;;;;;;5037995;28;20269;-84
2023/05/04 03:48:38;;;;;;;8.83;3.73;;;4.90;99.90;;;;;;5049749;28;20358;-84
2023/05/04 03:51:05;;;;;;;8.80;4.37;;;5.00;99.90;;;;;;5044684;28;20665;-82
2023/05/04 03:53:33;;;;;;;9.27;4.37;;;5.00;99.90;;;;;;5029528;28;20210;-82
2023/05/04 03:55:59;;;;;;;7.50;4.13;;;5.10;99.90;;;;;;5044223;28;20234;-83
2023/05/04 03:58:24;;;;;;;5.63;4.47;;;5.20;99.90;;;;;;5040915;28;20675;-82
2023/05/04 04:00:50;;;;;;;7.67;4.17;;;5.30;99.90;;;;;;5051207;28;20250;-82
2023/05/04 04:03:17;;;;;;;6.83;3.80;;;5.40;99.90;;;;;;5049892;28;20964;-82
2023/05/04 04:05:43;;;;;;;7.73;4.30;;;5.50;99.90;;;;;;5048001;28;20243;-82
2023/05/04 04:08:08;;;;;;;8.17;3.97;;;5.60;99.90;;;;;;5030131;28;20227;-84
2023/05/04 04:10:34;;;;;;;8.53;4.03;;;5.90;99.90;;;;;;5035470;28;20196;-84
2023/05/04 04:13:00;;;;;;;7.40;4.40;;;6.00;99.90;;;;;;5034918;28;20215;-83
2023/05/04 04:15:25;;;;;;;7.87;3.43;;;6.10;99.90;;;;;;5026951;28;20653;-83
2023/05/04 04:17:51;;;;;;;7.27;4.27;;;6.20;99.90;;;;;;5054041;28;20716;-83
2023/05/04 04:20:17;;;;;;;7.40;4.23;;;6.30;99.90;;;;;;5054154;28;20192;-83
2023/05/04 04:22:43;;;;;;;5.57;3.60;;;6.50;99.90;;;;;;5055194;28;20192;-83
2023/05/04 04:25:09;;;;;;;6.57;3.83;;;6.60;99.90;;;;;;5053466;28;20187;-83
2023/05/04 04:27:35;;;;;;;8.37;4.43;;;6.70;99.90;;;;;;5055073;28;20188;-84
2023/05/04 04:30:03;;;;;;;7.63;3.97;;;6.80;99.90;;;;;;5027260;28;20183;-84
2023/05/04 04:32:28;;;;;;;7.23;4.07;;;7.00;99.90;;;;;;5055099;28;20176;-84
2023/05/04 04:34:54;;;;;;;8.53;4.77;;;7.10;99.90;;;;;;5054206;28;20210;-83
2023/05/04 04:37:20;;;;;;;6.97;4.33;;;7.30;99.90;;;;;;5054131;28;20651;-83
2023/05/04 04:39:46;;;;;;;6.70;3.33;;;7.40;99.90;;;;;;5054982;28;20179;-85
2023/05/04 04:42:12;;;;;;;6.67;3.37;;;7.50;99.90;;;;;;5017465;28;20283;-84
2023/05/04 04:44:38;;;;;;;4.17;2.87;;;7.50;99.90;;;;;;5034623;28;20249;-85
2023/05/04 04:47:04;;;;;;;7.13;3.40;;;7.70;99.90;;;;;;5006522;28;20266;-84
2023/05/04 04:49:29;;;;;;;4.53;2.90;;;7.80;99.90;;;;;;5053625;28;20184;-84
2023/05/04 04:51:55;;;;;;;5.27;3.00;;;7.90;99.90;;;;;;5036395;28;20561;-84
2023/05/04 04:54:21;;;;;;;4.97;3.20;;;8.00;99.90;;;;;;5038850;28;20356;-85
2023/05/04 04:56:47;;;;;;;5.73;3.77;;;8.10;99.90;;;;;;5029375;28;20685;-83
2023/05/04 04:59:12;;;;;;;6.37;3.80;;;8.30;99.90;;;;;;5053256;28;20188;-84
2023/05/04 05:01:38;;;;;;;7.50;3.20;;;8.40;99.90;;;;;;5053225;28;20183;-84
2023/05/04 05:04:04;;;;;;;4.78;2.70;;;8.50;99.90;;;;;;5055093;28;20531;-84
2023/05/04 05:06:30;;;;;;;6.47;3.13;;;8.60;99.90;;;;;;5053244;28;20233;-84
2023/05/04 05:08:55;;;;;;;4.30;2.77;;;8.70;99.90;;;;;;5019934;28;20703;-84
2023/05/04 05:11:21;;;;;;;6.10;2.77;;;8.80;99.90;;;;;;5036623;28;20707;-84
2023/05/04 05:13:47;;;;;;;5.53;2.67;;;8.90;99.90;;;;;;5052694;28;20245;-83
2023/05/04 05:16:12;;;;;;;5.53;2.83;;;9.00;99.90;;;;;;5053387;28;20658;-84
2023/05/04 05:18:38;;;;;;;8.70;2.92;;;9.10;99.90;;;;;;5053632;28;20524;-84
2023/05/04 05:21:04;;;;;;;3.47;2.30;;;9.30;99.90;;;;;;5053296;28;20262;-84
2023/05/04 05:23:30;;;;;;;7.35;2.97;;;9.30;99.90;;;;;;5036632;28;20184;-84
2023/05/04 05:25:56;;;;;;;7.83;3.10;;;9.40;99.40;;;;;;5036726;28;20269;-84
2023/05/04 05:28:22;;;;;;;8.13;3.00;;;9.50;99.80;;;;;;5033649;28;20647;-83
2023/05/04 05:30:50;;;;;;;6.90;2.58;;;9.70;98.70;;;;;;5034467;28;20265;-83
2023/05/04 05:33:16;;;;;;;7.25;2.95;;;9.80;98.20;;;;;;5017451;28;20184;-82
2023/05/04 05:35:42;;;;;;;6.90;2.90;;;9.90;97.50;;;;;;5032798;28;20545;-86
2023/05/04 05:38:08;;;;;;;7.25;3.70;;;9.90;96.50;;;;;;5033594;28;20203;-83
2023/05/04 05:40:35;;;;;;;5.22;3.05;;;10.00;96.20;;;;;;5033551;28;20658;-83
2023/05/04 05:43:03;;;;;;;4.53;2.78;;;10.00;95.00;;;;;;5033214;28;20579;-83
2023/05/04 05:45:28;;;;;;;6.30;3.40;;;10.10;95.00;;;;;;5034492;28;20208;-83
2023/05/04 05:47:54;;;;;;;5.28;3.25;;;10.20;94.70;;;;;;5033970;28;20188;-83
2023/05/04 05:50:22;;;;;;;3.22;2.25;;;10.20;95.00;;;;;;5033268;28;20652;-82
2023/05/04 05:52:48;;;;;;;5.15;3.05;;;10.30;94.10;;;;;;5032976;28;20177;-84
2023/05/04 05:55:14;;;;;;;4.75;3.03;;;10.40;93.40;;;;;;5033614;28;20263;-85
2023/05/04 05:57:39;;;;;;;8.80;2.78;;;10.40;92.10;;;;;;5033338;28;20203;-85
2023/05/04 06:00:06;;;;;;;5.28;2.78;;;10.50;91.40;;;;;;5016557;28;20340;-84
2023/05/04 06:02:31;;;;;;;4.13;2.63;;;10.50;91.20;;;;;;5033163;28;20176;-83
2023/05/04 06:04:57;;;;;;;4.03;2.70;;;10.60;91.60;;;;;;5034052;28;20199;-83
2023/05/04 06:07:22;;;;;;;7.88;3.20;;;10.80;90.60;;;;;;5016339;28;20311;-83
2023/05/04 06:09:48;;;;;;;8.27;2.85;;;10.90;92.00;;;;;;5032246;28;20215;-84
2023/05/04 06:12:15;;;;;;;5.93;2.92;;;11.10;91.10;;;;;;5032246;28;20688;-82
2023/05/04 06:14:42;;;;;;;4.10;2.50;;;11.20;90.40;;;;;;5032029;28;20658;-83
2023/05/04 06:17:08;;;;;;;2.55;2.35;;;11.20;86.90;;;;;;5029993;28;20212;-83
2023/05/04 06:19:37;;;;;;;5.88;3.03;;;11.20;86.30;;;;;;5034342;28;20708;-83
2023/05/04 06:22:03;;;;;;;3.60;1.85;;;11.30;87.20;;;;;;5034135;28;20196;-84
2023/05/04 06:24:30;;;;;;;6.35;2.28;;;11.40;85.90;;;;;;5032800;28;20188;-84
2023/05/04 06:26:56;;;;;;;5.65;2.55;;;11.50;82.20;;;;;;5032767;28;20240;-83
2023/05/04 06:29:22;;;;;;;3.28;2.45;;;11.60;80.50;;;;;;5002045;28;20164;-83
2023/05/04 06:31:49;;;;;;;4.82;2.78;;;11.70;82.40;;;;;;5031798;28;20203;-83
2023/05/04 06:34:16;;;;;;;5.65;3.10;;;11.70;81.60;;;;;;5048747;28;20206;-82
2023/05/04 06:36:42;;;;;;;4.35;2.28;;;11.80;80.00;;;;;;5033932;28;20183;-83
2023/05/04 06:39:07;;;;;;;8.32;4.72;;;11.80;79.50;;;;;;5016265;28;20194;-83
2023/05/04 06:41:33;;;;;;;3.50;2.40;;;11.80;79.10;;;;;;5032355;28;20184;-83
2023/05/04 06:43:59;;;;;;;4.60;2.55;;;11.80;79.80;;;;;;5032252;28;20195;-83
2023/05/04 06:46:25;;;;;;;3.47;2.15;;;11.80;82.00;;;;;;5032293;28;20204;-82
2023/05/04 06:48:53;;;;;;;3.30;1.90;;;11.90;80.00;;;;;;5032277;28;20188;-82
2023/05/04 06:51:19;;;;;;;5.70;2.00;;;12.00;81.60;;;;;;5032217;28;20661;-81
2023/05/04 06:53:46;;;;;;;3.20;1.92;;;12.00;78.30;;;;;;5032086;28;20276;-81
2023/05/04 06:56:11;;;;;;;4.93;1.98;;;12.10;79.60;;;;;;5048540;28;20636;-81
2023/05/04 06:58:37;;;;;;;2.35;1.73;;;12.20;77.30;;;;;;5032214;28;20223;-81
2023/05/04 07:01:03;;;;;;;2.63;1.52;;;12.30;78.30;;;;;;5032814;28;20173;-81
2023/05/04 07:03:28;;;;;;;1.55;1.45;;;12.30;74.70;;;;;;5033423;28;20180;-82
2023/05/04 07:05:54;;;;;;;1.92;1.50;;;12.40;71.20;;;;;;4999252;28;20230;-83
2023/05/04 07:08:20;;;;;;;1.77;1.63;;;12.40;69.50;;;;;;5015626;28;20264;-83
2023/05/04 07:10:45;;;;;;;3.97;2.10;;;12.50;70.30;;;;;;5032595;28;20181;-83
2023/05/04 07:13:12;;;;;;;2.65;1.63;;;12.50;69.30;;;;;;5031855;28;20184;-83
2023/05/04 07:15:38;;;;;;;3.13;1.60;;;12.60;70.30;;;;;;5014518;28;20327;-83
2023/05/04 07:18:04;;;;;;;3.05;1.63;;;12.80;70.60;;;;;;5014437;28;20636;-84
2023/05/04 07:20:29;;;;;;;3.40;1.60;;;12.60;63.50;;;;;;5031261;28;20184;-83
2023/05/04 07:22:55;;;;;;;2.33;1.85;;;12.60;65.70;;;;;;5031193;28;20726;-83
2023/05/04 07:25:25;;;;;;;3.15;1.50;;;12.70;65.80;;;;;;5029459;28;20177;-83
2023/05/04 07:27:51;;;;;;;2.63;1.67;;;12.80;65.00;;;;;;5032110;28;20651;-83
2023/05/04 07:30:18;;;;;;;4.50;1.70;;;12.90;65.30;;;;;;5030297;28;20283;-83
2023/05/04 07:32:45;;;;;;;3.60;1.42;;;13.10;66.90;;;;;;5032409;28;20188;-83
2023/05/04 07:35:11;;;;;;;3.60;1.95;;;13.20;65.10;;;;;;5031752;28;20175;-83
2023/05/04 07:37:37;;;;;;;1.60;1.50;;;13.20;61.90;;;;;;5030613;28;20184;-84
2023/05/04 07:40:07;;;;;;;3.03;1.90;;;13.20;62.00;;;;;;5031795;28;20242;-86
2023/05/04 07:42:33;;;;;;;2.53;1.85;;;13.40;63.70;;;;;;5031145;28;20196;-84
2023/05/04 07:45:00;;;;;;;2.75;1.65;;;13.50;60.60;;;;;;5046663;28;20583;-84
2023/05/04 07:47:26;;;;;;;1.65;1.17;;;13.50;59.30;;;;;;5031951;28;20220;-83
2023/05/04 07:49:51;;;;;;;1.90;1.50;;;13.50;60.60;;;;;;5030553;28;20231;-83
2023/05/04 07:52:17;;;;;;;2.10;1.40;;;13.60;59.70;;;;;;5046593;28;20193;-84
2023/05/04 07:54:43;;;;;;;2.00;1.20;;;13.70;59.40;;;;;;5046931;28;20173;-84
2023/05/04 07:57:09;;;;;;;1.30;1.20;;;13.80;59.10;;;;;;5030056;28;20176;-83
2023/05/04 07:59:34;;;;;;;1.67;1.35;;;13.80;58.40;;;;;;5030459;28;20184;-83
2023/05/04 08:02:00;;;;;;;2.13;1.38;;;13.90;58.10;;;;;;5014257;28;20185;-83
2023/05/04 08:04:26;;;;;;;2.63;1.67;;;14.00;58.20;;;;;;5014902;28;20686;-81
2023/05/04 08:06:52;;;;;;;1.92;1.40;;;14.10;57.90;;;;;;5031966;28;20212;-83
2023/05/04 08:09:18;;;;;;;4.30;1.10;;;14.10;57.30;;;;;;5031409;28;20267;-83
2023/05/04 08:11:45;;;;;;;0.73;0.73;;;14.00;55.20;;;;;;5031968;28;20638;-83
2023/05/04 08:14:11;;;;;;;2.38;1.00;;;14.00;55.60;;;;;;5029945;28;20315;-83
2023/05/04 08:16:38;;;;;;;0.98;0.85;;;14.10;56.00;;;;;;5031626;28;20263;-84
2023/05/04 08:19:04;;;;;;;1.20;1.10;;;14.10;54.70;;;;;;5013869;28;20191;-84
2023/05/04 08:21:30;;;;;;;1.50;1.17;;;14.10;54.60;;;;;;5047367;28;20177;-83
2023/05/04 08:23:56;;;;;;;1.20;1.00;;;14.20;54.70;;;;;;5031572;28;20537;-83
2023/05/04 08:26:22;;;;;;;1.08;0.98;;;14.30;55.70;;;;;;5031213;28;20274;-82
2023/05/04 08:28:48;;;;;;;1.50;1.00;;;14.40;55.60;;;;;;5030204;28;20192;-82
2023/05/04 08:31:14;;;;;;;1.70;1.33;;;14.40;55.10;;;;;;5029816;28;20181;-82
2023/05/04 08:33:40;;;;;;;2.55;1.15;;;14.50;53.70;;;;;;5030278;28;20650;-83
2023/05/04 08:36:07;;;;;;;1.13;1.02;;;14.50;52.90;;;;;;5030498;28;20189;-82
2023/05/04 08:38:33;;;;;;;1.58;1.20;;;14.50;52.60;;;;;;5013281;28;20188;-82
2023/05/04 08:41:03;;;;;;;4.28;1.70;;;14.50;54.40;;;;;;5032591;28;20172;-81
2023/05/04 08:43:29;;;;;;;1.10;1.00;;;14.50;53.80;;;;;;5032386;28;20176;-82
2023/05/04 08:45:55;;;;;;;3.25;1.17;;;14.50;56.50;;;;;;5031172;28;20236;-81
2023/05/04 08:48:21;;;;;;;1.20;1.10;;;14.50;55.00;;;;;;5033315;28;20189;-82
2023/05/04 08:50:47;;;;;;;1.08;1.02;;;14.60;54.70;;;;;;5033025;28;20263;-81
2023/05/04 08:53:17;;;;;;;1.95;1.05;;;14.70;56.00;;;;;;5030931;28;20603;-82
2023/05/04 08:55:46;;;;;;;1.52;1.13;;;14.70;54.80;;;;;;5050470;28;20181;-82
2023/05/04 08:58:15;;;;;;;1.92;1.05;;;14.70;55.30;;;;;;5035062;28;20202;-82
2023/05/04 09:00:42;;;;;;;1.65;1.38;;;14.90;55.30;;;;;;5036557;28;20211;-82
2023/05/04 09:03:12;;;;;;;1.17;1.08;;;15.00;56.60;;;;;;5036176;28;20214;-84
2023/05/04 09:05:40;;;;;;;1.40;1.25;;;14.90;53.60;;;;;;5035117;28;20258;-81
2023/05/04 09:08:06;;;;;;;1.30;1.00;;;14.90;55.00;;;;;;5036194;28;20193;-81
2023/05/04 09:10:33;;;;;;;2.13;1.05;;;15.10;55.70;;;;;;5034634;28;20180;-82
2023/05/04 09:12:59;;;;;;;1.10;0.80;;;15.20;53.90;;;;;;5036011;28;20172;-83
2023/05/04 09:15:25;;;;;;;4.32;1.80;;;15.10;53.00;;;;;;5034669;28;20224;-83
2023/05/04 09:18:04;;;;;;;0.70;0.70;;;15.20;55.40;;;;;;5034284;28;20311;-83
2023/05/04 09:20:41;;;;;;;0.80;0.80;;;15.40;55.20;;;;;;5030447;28;20202;-83
2023/05/04 09:23:08;;;;;;;0.93;0.93;;;15.40;54.20;;;;;;5014363;28;20180;-83
2023/05/04 09:25:54;;;;;;;1.50;0.95;;;15.50;52.70;;;;;;5034770;28;20326;-82
2023/05/04 09:28:32;;;;;;;1.58;1.20;;;15.50;51.90;;;;;;5035274;28;20173;-86
2023/05/04 09:31:01;;;;;;;1.02;0.93;;;15.70;55.40;;;;;;5035353;28;20274;-85
2023/05/04 09:33:28;;;;;;;2.05;1.10;;;15.80;52.20;;;;;;5035623;28;20179;-86
2023/05/04 09:35:53;;;;;;;1.77;1.10;;;15.80;51.70;;;;;;5033619;28;20188;-86
2023/05/04 09:38:32;;;;;;;1.55;1.00;;;15.90;53.10;;;;;;5035044;28;20173;-86
2023/05/04 09:40:57;;;;;;;1.10;0.98;;;15.90;51.20;;;;;;5034148;28;20597;-86
2023/05/04 09:43:23;;;;;;;59.42;6.35;;;15.90;51.80;;;;;;5033416;28;20180;-86
2023/05/04 09:45:50;;;;;;;1.20;0.90;;;15.90;53.70;;;;;;5032916;28;20298;-86
2023/05/04 09:48:19;;;;;;;1.60;0.90;;;15.70;51.70;;;;;;5034510;28;20184;-86
2023/05/04 09:50:52;;;;;;;149.00;26.52;;;15.30;50.10;;;;;;5017168;28;20181;-86
2023/05/04 09:53:23;;;;;;;9.60;2.25;;;15.40;54.10;;;;;;5034191;28;20706;-86
2023/05/04 09:56:18;;;;;;;202.00;33.53;;;15.50;51.70;;;;;;5034444;28;20179;-85
2023/05/04 09:58:45;;;;;;;3.70;1.85;;;15.60;51.90;;;;;;5029251;28;20204;-85
2023/05/04 10:01:11;;;;;;;4.60;2.15;;;15.80;52.90;;;;;;5033901;28;20173;-86
2023/05/04 10:03:36;;;;;;;2.95;1.67;;;16.00;52.10;;;;;;5032826;28;20238;-85
2023/05/04 10:06:04;;;;;;;4.15;1.40;;;16.20;52.00;;;;;;5032072;28;20701;-85
2023/05/04 10:08:31;;;;;;;1.13;0.90;;;16.10;53.10;;;;;;5032533;28;20169;-86
2023/05/04 10:10:57;;;;;;;1.17;0.95;;;16.20;50.20;;;;;;5034089;28;20173;-85
2023/05/04 10:13:23;;;;;;;2.20;0.95;;;16.30;49.30;;;;;;5016167;28;20272;-85
2023/05/04 10:16:08;;;;;;;0.90;0.80;;;16.10;49.40;;;;;;5033559;28;20239;-86
2023/05/04 10:18:46;;;;;;;2.03;1.10;;;16.10;52.20;;;;;;5032467;28;20200;-86
2023/05/04 10:22:02;;;;;;;2.83;1.30;;;16.40;55.30;;;;;;5035226;28;20188;-85
2023/05/04 10:24:58;;;;;;;2.78;1.63;;;16.60;53.10;;;;;;5033686;28;20184;-85
2023/05/04 10:27:51;;;;;;;2.72;1.30;;;16.90;53.60;;;;;;5032808;28;20247;-87
2023/05/04 10:30:17;;;;;;;1.88;1.00;;;17.00;54.40;;;;;;5035237;28;20165;-84
2023/05/04 10:32:44;;;;;;;4.60;1.17;;;16.80;50.30;;;;;;5034313;28;20179;-85
2023/05/04 10:35:10;;;;;;;1.42;1.00;;;16.70;50.60;;;;;;5034742;28;20231;-85
2023/05/04 10:37:39;;;;;;;2.38;1.10;;;16.90;54.10;;;;;;5034332;28;20283;-85
2023/05/04 10:40:06;;;;;;;1.50;0.98;;;17.20;53.40;;;;;;5033216;28;20172;-85
2023/05/04 10:42:42;;;;;;;1.23;1.10;;;17.30;52.80;;;;;;5033629;28;20215;-84
2023/05/04 10:45:09;;;;;;;1.15;0.80;;;17.20;49.80;;;;;;5034368;28;20190;-85
2023/05/04 10:47:42;;;;;;;1.08;0.93;;;17.10;49.30;;;;;;5033908;28;20556;-84
2023/05/04 10:50:17;;;;;;;1.25;0.90;;;17.00;50.70;;;;;;5034640;28;20183;-84
2023/05/04 10:52:53;;;;;;;1.40;1.15;;;17.10;52.50;;;;;;5035252;28;20172;-84
2023/05/04 10:55:20;;;;;;;1.73;1.08;;;17.40;50.90;;;;;;5034737;28;20199;-84
2023/05/04 10:57:56;;;;;;;1.52;1.05;;;17.60;51.80;;;;;;5034402;28;20180;-85
2023/05/04 11:00:23;;;;;;;0.93;0.93;;;17.70;51.10;;;;;;5034973;28;20169;-84
2023/05/04 11:02:49;;;;;;;1.75;0.93;;;17.30;46.60;;;;;;5034103;28;20262;-84
2023/05/04 11:05:18;;;;;;;1.85;0.90;;;17.20;52.20;;;;;;5034515;28;20181;-85
2023/05/04 11:07:45;;;;;;;0.82;0.77;;;17.40;51.00;;;;;;5050173;28;20231;-85
2023/05/04 11:10:25;;;;;;;1.30;0.90;;;17.70;49.70;;;;;;5053288;28;20237;-84
2023/05/04 11:12:51;;;;;;;1.00;0.90;;;17.90;51.50;;;;;;5030594;28;20168;-85
2023/05/04 11:15:18;;;;;;;1.00;0.80;;;18.00;51.90;;;;;;5032433;28;20235;-84
2023/05/04 11:17:48;;;;;;;2.28;1.15;;;18.10;51.90;;;;;;5033556;28;20173;-84
2023/05/04 11:20:25;;;;;;;2.78;1.25;;;18.20;52.80;;;;;;5031363;28;20635;-83
2023/05/04 11:22:51;;;;;;;1.23;0.90;;;18.30;50.80;;;;;;5029677;28;20172;-85
2023/05/04 11:25:26;;;;;;;2.38;1.00;;;18.30;49.60;;;;;;5031390;28;20177;-85
2023/05/04 11:27:52;;;;;;;0.65;0.65;;;18.20;48.50;;;;;;5029408;28;20187;-84
2023/05/04 11:30:17;;;;;;;1.10;1.02;;;18.00;48.50;;;;;;5032525;28;20556;-83
2023/05/04 11:32:48;;;;;;;0.88;0.82;;;17.70;47.10;;;;;;5014338;28;20172;-84
2023/05/04 11:35:19;;;;;;;1.80;0.90;;;17.10;47.50;;;;;;5031169;28;20189;-85
2023/05/04 11:37:46;;;;;;;1.00;0.73;;;17.20;51.20;;;;;;5032509;28;20259;-84
2023/05/04 11:40:13;;;;;;;1.27;0.90;;;17.50;50.60;;;;;;5030525;28;20267;-84
2023/05/04 11:42:40;;;;;;;1.63;1.15;;;17.50;46.60;;;;;;5030371;28;20180;-86
2023/05/04 11:45:16;;;;;;;5.20;2.00;;;17.40;48.50;;;;;;5030257;28;20183;-84
2023/05/04 11:47:43;;;;;;;1.00;0.90;;;17.50;49.80;;;;;;5030512;28;20215;-83
2023/05/04 11:50:12;;;;;;;1.17;0.90;;;17.50;45.30;;;;;;5032521;28;20657;-84
2023/05/04 11:52:40;;;;;;;1.20;1.10;;;17.50;47.00;;;;;;5031742;28;20231;-83
2023/05/04 11:55:10;;;;;;;1.42;0.95;;;17.20;46.20;;;;;;5032583;28;20272;-84
2023/05/04 11:57:36;;;;;;;1.50;1.02;;;17.30;46.30;;;;;;5047488;28;20172;-84
2023/05/04 12:00:07;;;;;;;0.80;0.80;;;17.10;44.80;;;;;;5030026;28;20191;-84
2023/05/04 12:02:33;;;;;;;1.30;0.90;;;17.20;46.40;;;;;;5031904;28;20164;-84
2023/05/04 12:05:00;;;;;;;1.48;0.90;;;17.50;47.60;;;;;;5031992;28;20204;-84
2023/05/04 12:07:26;;;;;;;1.52;0.93;;;17.80;50.10;;;;;;5014888;28;20205;-83
2023/05/04 12:09:52;;;;;;;1.63;1.05;;;17.90;45.00;;;;;;5030841;28;20187;-84
2023/05/04 12:12:20;;;;;;;1.20;1.00;;;17.70;47.80;;;;;;5031910;28;20177;-83
2023/05/04 12:14:52;;;;;;;1.15;0.70;;;17.80;45.30;;;;;;5031723;28;20228;-83
2023/05/04 12:17:19;;;;;;;2.83;0.90;;;17.70;44.00;;;;;;5032219;28;20180;-82
2023/05/04 12:19:56;;;;;;;2.22;1.00;;;17.90;49.10;;;;;;5031033;28;20238;-83
2023/05/04 12:22:29;;;;;;;0.63;0.63;;;18.10;47.00;;;;;;5032635;28;20169;-84
2023/05/04 12:24:58;;;;;;;1.58;0.75;;;18.20;43.10;;;;;;5032040;28;20188;-84
2023/05/04 12:27:27;;;;;;;1.08;0.77;;;17.90;45.60;;;;;;5031729;28;20211;-83
2023/05/04 12:29:53;;;;;;;1.50;0.95;;;17.90;45.60;;;;;;5031985;28;20668;-83
2023/05/04 12:32:20;;;;;;;1.70;0.80;;;18.00;46.60;;;;;;5018921;28;20223;-83
2023/05/04 12:34:46;;;;;;;1.27;0.90;;;18.30;45.80;;;;;;5035778;28;20257;-84
2023/05/04 12:37:11;;;;;;;0.73;0.73;;;18.50;46.70;;;;;;5002128;28;20654;-84
2023/05/04 12:39:37;;;;;;;1.42;0.80;;;18.80;46.00;;;;;;5035648;28;20282;-84
2023/05/04 12:42:03;;;;;;;2.10;0.90;;;19.10;47.00;;;;;;5036307;28;20496;-84
2023/05/04 12:44:29;;;;;;;1.27;1.17;;;19.00;46.90;;;;;;5035458;28;20192;-84
2023/05/04 12:46:55;;;;;;;1.20;0.80;;;19.10;46.50;;;;;;5035122;28;20258;-85
2023/05/04 12:49:22;;;;;;;1.70;0.90;;;19.00;45.90;;;;;;5035469;28;20173;-85